createdAt,value
2022-11-12T00:00:02.077Z,7.9
2022-11-12T00:01:02.112Z,8
2022-11-12T00:02:02.142Z,8
2022-11-12T00:03:02.198Z,7.9
2022-11-12T00:04:02.279Z,7.9
2022-11-12T00:05:02.334Z,7.9
2022-11-12T00:06:02.384Z,7.8
2022-11-12T00:07:02.471Z,7.8
2022-11-12T00:08:02.505Z,7.8
2022-11-12T00:09:02.589Z,7.8
2022-11-12T00:10:02.626Z,7.7
2022-11-12T00:11:02.671Z,7.5
2022-11-12T00:12:02.748Z,7.6
2022-11-12T00:13:02.878Z,7.6
2022-11-12T00:14:02.868Z,7.6
2022-11-12T00:15:02.877Z,7.6
2022-11-12T00:16:02.969Z,7.5
2022-11-12T00:17:03.009Z,7.6
2022-11-12T00:18:03.049Z,7.6
2022-11-12T00:19:03.136Z,7.5
2022-11-12T00:20:03.176Z,7.5
2022-11-12T00:21:03.199Z,7.5
2022-11-12T00:22:03.314Z,7.6
2022-11-12T00:23:03.309Z,7.6
2022-11-12T00:24:03.384Z,7.6
2022-11-12T00:25:03.476Z,7.5
2022-11-12T00:26:03.493Z,7.5
2022-11-12T00:27:03.577Z,7.5
2022-11-12T00:28:03.601Z,7.5
2022-11-12T00:29:03.792Z,7.5
2022-11-12T00:30:03.772Z,7.4
2022-11-12T00:31:03.767Z,7.5
2022-11-12T00:32:03.879Z,7.4
2022-11-12T00:33:03.880Z,7.4
2022-11-12T00:34:03.934Z,7.4
2022-11-12T00:35:03.991Z,7.4
2022-11-12T00:36:04.027Z,7.4
2022-11-12T00:37:04.130Z,7.4
2022-11-12T00:38:04.201Z,7.4
2022-11-12T00:39:04.347Z,7.3
2022-11-12T00:40:04.384Z,7.3
2022-11-12T00:41:04.410Z,7.4
2022-11-12T00:42:04.521Z,7.4
2022-11-12T00:43:04.538Z,7.3
2022-11-12T00:44:04.608Z,7.3
2022-11-12T00:45:04.764Z,7.2
2022-11-12T00:46:04.704Z,7.3
2022-11-12T00:47:04.761Z,7.3
2022-11-12T00:48:04.838Z,7.4
2022-11-12T00:49:04.902Z,7.5
2022-11-12T00:50:04.925Z,7.4
2022-11-12T00:51:04.967Z,7.4
2022-11-12T00:52:05.033Z,7.5
2022-11-12T00:53:05.080Z,7.4
2022-11-12T00:54:05.137Z,7.3
2022-11-12T00:55:05.245Z,7.4
2022-11-12T00:56:05.258Z,7.4
2022-11-12T00:57:05.340Z,7.4
2022-11-12T00:58:05.382Z,7.4
2022-11-12T00:59:05.440Z,7.6
2022-11-12T01:00:05.490Z,7.5
2022-11-12T01:01:05.700Z,7.5
2022-11-12T01:02:05.614Z,7.5
2022-11-12T01:03:05.667Z,7.5
2022-11-12T01:04:05.777Z,7.6
2022-11-12T01:05:05.788Z,7.5
2022-11-12T01:06:05.831Z,7.5
2022-11-12T01:07:05.924Z,7.4
2022-11-12T01:08:05.940Z,7.5
2022-11-12T01:09:06.005Z,7.4
2022-11-12T01:10:06.052Z,7.4
2022-11-12T01:11:06.123Z,7.4
2022-11-12T01:12:06.168Z,7.4
2022-11-12T01:13:06.260Z,7.4
2022-11-12T01:14:06.350Z,7.3
2022-11-12T01:15:06.461Z,7.3
2022-11-12T01:16:06.575Z,7.4
2022-11-12T01:17:06.806Z,7.3
2022-11-12T01:18:06.726Z,7.3
2022-11-12T01:19:06.771Z,7.4
2022-11-12T01:20:06.809Z,7.3
2022-11-12T01:21:06.869Z,7.3
2022-11-12T01:22:06.941Z,7.3
2022-11-12T01:23:06.989Z,7.3
2022-11-12T01:24:07.082Z,7.4
2022-11-12T01:25:07.078Z,7.4
2022-11-12T01:26:07.164Z,7.4
2022-11-12T01:27:07.199Z,7.3
2022-11-12T01:28:07.223Z,7.2
2022-11-12T01:29:07.337Z,7.2
2022-11-12T01:30:07.358Z,7.1
2022-11-12T01:31:07.397Z,7.1
2022-11-12T01:32:07.481Z,7.1
2022-11-12T01:33:07.666Z,7.2
2022-11-12T01:34:07.613Z,7.2
2022-11-12T01:35:07.675Z,7.3
2022-11-12T01:36:07.708Z,7.3
2022-11-12T01:37:07.813Z,7.2
2022-11-12T01:38:07.848Z,7.3
2022-11-12T01:39:07.881Z,7.3
2022-11-12T01:40:08.163Z,7.2
2022-11-12T01:41:07.982Z,7.1
2022-11-12T01:42:08.027Z,7.2
2022-11-12T01:43:08.123Z,7.2
2022-11-12T01:44:08.162Z,7.2
2022-11-12T01:45:08.237Z,7.2
2022-11-12T01:46:08.295Z,7.2
2022-11-12T01:47:08.320Z,7.2
2022-11-12T01:48:08.333Z,7.3
2022-11-12T01:49:08.511Z,7.2
2022-11-12T01:50:09.101Z,7.3
2022-11-12T01:51:08.508Z,7.3
2022-11-12T01:52:08.554Z,7.2
2022-11-12T01:53:08.625Z,7.2
2022-11-12T01:54:08.932Z,7.3
2022-11-12T01:55:08.732Z,7.2
2022-11-12T01:56:08.778Z,7.1
2022-11-12T01:57:08.878Z,7.1
2022-11-12T01:58:08.895Z,7.2
2022-11-12T01:59:09.002Z,7.2
2022-11-12T02:00:09.031Z,7.3
2022-11-12T02:01:09.191Z,7.2
2022-11-12T02:02:09.165Z,7.2
2022-11-12T02:03:10.374Z,7.3
2022-11-12T02:04:09.292Z,7.3
2022-11-12T02:05:09.494Z,7.2
2022-11-12T02:06:09.361Z,7.1
2022-11-12T02:07:09.456Z,7.2
2022-11-12T02:08:09.482Z,7.1
2022-11-12T02:09:09.536Z,7.1
2022-11-12T02:10:09.585Z,7.1
2022-11-12T02:11:09.643Z,7.1
2022-11-12T02:12:09.703Z,7
2022-11-12T02:13:09.745Z,7
2022-11-12T02:14:09.810Z,6.9
2022-11-12T02:15:09.920Z,6.9
2022-11-12T02:16:09.905Z,6.9
2022-11-12T02:17:09.993Z,6.9
2022-11-12T02:18:10.014Z,6.9
2022-11-12T02:19:10.130Z,7.1
2022-11-12T02:20:10.152Z,7
2022-11-12T02:21:10.334Z,7
2022-11-12T02:22:10.275Z,7
2022-11-12T02:23:10.323Z,7
2022-11-12T02:24:10.397Z,7
2022-11-12T02:25:10.419Z,7
2022-11-12T02:26:10.444Z,7.1
2022-11-12T02:27:10.513Z,7
2022-11-12T02:28:10.549Z,7
2022-11-12T02:29:10.613Z,7
2022-11-12T02:30:10.666Z,7
2022-11-12T02:31:10.712Z,7
2022-11-12T02:32:10.791Z,7
2022-11-12T02:33:10.848Z,7
2022-11-12T02:34:10.955Z,7
2022-11-12T02:35:11.028Z,7
2022-11-12T02:36:11.068Z,7
2022-11-12T02:37:11.224Z,7
2022-11-12T02:38:11.158Z,7
2022-11-12T02:39:11.227Z,6.9
2022-11-12T02:40:11.308Z,6.9
2022-11-12T02:41:11.353Z,6.9
2022-11-12T02:42:11.424Z,6.9
2022-11-12T02:43:11.474Z,7
2022-11-12T02:44:11.541Z,6.9
2022-11-12T02:45:11.570Z,6.8
2022-11-12T02:46:11.605Z,6.9
2022-11-12T02:47:11.674Z,6.8
2022-11-12T02:48:15.203Z,6.7
2022-11-12T02:49:11.764Z,6.8
2022-11-12T02:50:11.812Z,6.7
2022-11-12T02:51:11.865Z,6.7
2022-11-12T02:52:11.925Z,6.7
2022-11-12T02:53:12.106Z,6.7
2022-11-12T02:54:12.060Z,6.7
2022-11-12T02:55:12.090Z,6.8
2022-11-12T02:56:12.147Z,6.7
2022-11-12T02:57:12.198Z,6.8
2022-11-12T02:58:12.215Z,6.9
2022-11-12T02:59:12.310Z,6.9
2022-11-12T03:00:12.345Z,6.9
2022-11-12T03:01:12.442Z,6.9
2022-11-12T03:02:12.480Z,6.8
2022-11-12T03:03:12.540Z,6.9
2022-11-12T03:04:12.620Z,6.9
2022-11-12T03:05:12.642Z,7
2022-11-12T03:06:12.706Z,6.9
2022-11-12T03:07:12.817Z,6.9
2022-11-12T03:08:12.795Z,6.9
2022-11-12T03:09:12.997Z,7
2022-11-12T03:10:12.890Z,6.9
2022-11-12T03:11:12.953Z,6.9
2022-11-12T03:12:13.017Z,6.9
2022-11-12T03:13:13.127Z,7
2022-11-12T03:14:13.200Z,6.9
2022-11-12T03:15:13.208Z,6.9
2022-11-12T03:16:13.270Z,6.9
2022-11-12T03:17:13.333Z,7
2022-11-12T03:18:13.403Z,6.8
2022-11-12T03:19:14.527Z,6.7
2022-11-12T03:20:13.514Z,6.6
2022-11-12T03:21:13.572Z,6.6
2022-11-12T03:22:13.610Z,6.6
2022-11-12T03:23:13.667Z,6.7
2022-11-12T03:24:13.744Z,6.7
2022-11-12T03:26:38.927Z,6.7
2022-11-12T03:27:13.904Z,6.6
2022-11-12T03:28:13.990Z,6.6
2022-11-12T03:29:14.057Z,6.6
2022-11-12T03:30:14.084Z,6.5
2022-11-12T03:31:14.177Z,6.6
2022-11-12T03:32:14.242Z,6.5
2022-11-12T03:33:14.360Z,6.6
2022-11-12T03:34:14.579Z,6.6
2022-11-12T03:35:14.506Z,6.5
2022-11-12T03:36:14.579Z,6.5
2022-11-12T03:37:19.676Z,6.5
2022-11-12T03:38:14.707Z,6.5
2022-11-12T03:39:14.748Z,6.5
2022-11-12T03:40:14.810Z,6.5
2022-11-12T03:41:14.880Z,6.5
2022-11-12T03:42:15.056Z,6.6
2022-11-12T03:43:14.985Z,6.6
2022-11-12T03:44:15.087Z,6.4
2022-11-12T03:45:15.119Z,6.3
2022-11-12T03:46:15.141Z,6.5
2022-11-12T03:47:15.213Z,6.5
2022-11-12T03:48:15.272Z,6.5
2022-11-12T03:49:15.348Z,6.5
2022-11-12T03:50:15.435Z,6.4
2022-11-12T03:51:15.457Z,6.5
2022-11-12T03:52:15.543Z,6.4
2022-11-12T03:53:15.576Z,6.5
2022-11-12T03:54:15.676Z,6.4
2022-11-12T03:55:15.706Z,6.3
2022-11-12T03:56:15.777Z,6.3
2022-11-12T03:57:15.821Z,6.2
2022-11-12T03:58:16.010Z,6.2
2022-11-12T03:59:15.953Z,6.2
2022-11-12T04:00:16.010Z,6.3
2022-11-12T04:01:16.096Z,6.3
2022-11-12T04:02:16.148Z,6.3
2022-11-12T04:03:16.161Z,6.2
2022-11-12T04:04:16.221Z,6.1
2022-11-12T04:05:16.285Z,6.2
2022-11-12T04:06:16.358Z,6.1
2022-11-12T04:07:16.382Z,6.2
2022-11-12T04:08:16.503Z,6.2
2022-11-12T04:09:16.589Z,6.2
2022-11-12T04:10:16.583Z,6.3
2022-11-12T04:11:16.627Z,6.3
2022-11-12T04:12:16.696Z,6.3
2022-11-12T04:13:16.764Z,6.3
2022-11-12T04:14:17.007Z,6.2
2022-11-12T04:15:16.881Z,6.2
2022-11-12T04:16:16.987Z,6.1
2022-11-12T04:17:16.979Z,6.2
2022-11-12T04:18:17.021Z,6.2
2022-11-12T04:19:17.113Z,6.3
2022-11-12T04:20:17.139Z,6.4
2022-11-12T04:21:17.193Z,6.3
2022-11-12T04:22:17.294Z,6.3
2022-11-12T04:23:17.297Z,6.3
2022-11-12T04:24:17.401Z,6.3
2022-11-12T04:25:17.405Z,6.3
2022-11-12T04:26:17.462Z,6.2
2022-11-12T04:27:17.492Z,6.2
2022-11-12T04:28:17.560Z,6.1
2022-11-12T04:29:17.637Z,6.2
2022-11-12T04:31:23.234Z,6.2
2022-11-12T04:32:17.836Z,6.2
2022-11-12T04:33:18.727Z,6.1
2022-11-12T04:34:18.092Z,6
2022-11-12T04:35:18.993Z,6.1
2022-11-12T04:36:18.021Z,6
2022-11-12T04:37:23.301Z,6
2022-11-12T04:38:18.134Z,6
2022-11-12T04:39:18.984Z,6
2022-11-12T04:40:18.216Z,6.1
2022-11-12T04:41:18.643Z,6.1
2022-11-12T04:42:18.370Z,6.1
2022-11-12T04:43:18.630Z,6.1
2022-11-12T04:44:18.528Z,6.1
2022-11-12T04:45:18.618Z,6
2022-11-12T04:46:18.623Z,6.1
2022-11-12T04:47:19.193Z,6.1
2022-11-12T04:48:18.718Z,6
2022-11-12T04:49:19.126Z,6
2022-11-12T04:50:18.841Z,6.1
2022-11-12T04:51:20.212Z,6.1
2022-11-12T04:52:18.997Z,6.1
2022-11-12T04:53:19.227Z,6.1
2022-11-12T04:54:19.401Z,6.2
2022-11-12T04:55:19.177Z,6.2
2022-11-12T04:56:19.208Z,6.2
2022-11-12T04:57:20.233Z,6
2022-11-12T04:58:19.460Z,5.9
2022-11-12T04:59:19.673Z,5.9
2022-11-12T05:00:19.389Z,5.9
2022-11-12T05:01:22.683Z,5.9
2022-11-12T05:02:19.506Z,5.9
2022-11-12T05:03:19.962Z,5.9
2022-11-12T05:04:20.421Z,6
2022-11-12T05:05:20.531Z,6
2022-11-12T05:06:19.718Z,6.1
2022-11-12T05:07:20.021Z,6.1
2022-11-12T05:08:19.788Z,6
2022-11-12T05:09:20.004Z,6
2022-11-12T05:10:19.885Z,6
2022-11-12T05:11:21.413Z,6
2022-11-12T05:12:20.022Z,6
2022-11-12T05:13:20.496Z,6.1
2022-11-12T05:14:20.192Z,6
2022-11-12T05:15:20.918Z,5.9
2022-11-12T05:16:20.418Z,5.9
2022-11-12T05:17:20.963Z,5.8
2022-11-12T05:18:20.449Z,5.8
2022-11-12T05:19:22.274Z,6
2022-11-12T05:20:20.620Z,6.1
2022-11-12T05:21:21.383Z,6
2022-11-12T05:22:42.443Z,6
2022-11-12T05:23:20.876Z,6
2022-11-12T05:24:40.322Z,5.8
2022-11-12T05:25:23.527Z,5.8
2022-11-12T05:26:21.015Z,5.8
2022-11-12T05:27:21.186Z,6
2022-11-12T05:28:24.554Z,5.9
2022-11-12T05:29:21.251Z,5.8
2022-11-12T05:30:21.278Z,5.8
2022-11-12T05:31:22.042Z,5.8
2022-11-12T05:32:21.370Z,5.8
2022-11-12T05:33:21.469Z,5.7
2022-11-12T05:34:23.132Z,5.7
2022-11-12T05:35:21.691Z,5.6
2022-11-12T05:36:21.632Z,5.5
2022-11-12T05:37:21.652Z,5.5
2022-11-12T05:38:21.723Z,5.6
2022-11-12T05:39:22.074Z,5.5
2022-11-12T05:40:23.914Z,5.5
2022-11-12T05:41:21.874Z,5.5
2022-11-12T05:42:21.937Z,5.6
2022-11-12T05:43:23.967Z,5.6
2022-11-12T05:44:22.050Z,5.7
2022-11-12T05:45:22.111Z,5.6
2022-11-12T05:46:23.472Z,5.7
2022-11-12T05:47:22.242Z,5.7
2022-11-12T05:48:24.321Z,5.8
2022-11-12T05:49:23.046Z,5.8
2022-11-12T05:50:22.405Z,5.8
2022-11-12T05:51:22.574Z,5.8
2022-11-12T05:52:23.032Z,5.8
2022-11-12T05:53:22.625Z,5.8
2022-11-12T05:54:22.698Z,5.7
2022-11-12T05:55:23.554Z,5.7
2022-11-12T05:56:22.794Z,5.8
2022-11-12T05:57:22.882Z,5.8
2022-11-12T05:58:23.070Z,5.7
2022-11-12T05:59:22.978Z,5.7
2022-11-12T06:00:23.016Z,5.7
2022-11-12T06:01:23.093Z,5.7
2022-11-12T06:02:23.238Z,5.7
2022-11-12T06:03:23.215Z,5.7
2022-11-12T06:04:23.251Z,5.6
2022-11-12T06:05:23.295Z,5.6
2022-11-12T06:06:23.377Z,5.5
2022-11-12T06:07:23.760Z,5.6
2022-11-12T06:08:23.677Z,5.6
2022-11-12T06:09:23.542Z,5.6
2022-11-12T06:10:23.601Z,5.7
2022-11-12T06:11:23.652Z,5.7
2022-11-12T06:12:23.748Z,5.6
2022-11-12T06:13:24.054Z,5.6
2022-11-12T06:14:23.853Z,5.7
2022-11-12T06:15:23.876Z,5.7
2022-11-12T06:16:25.616Z,5.6
2022-11-12T06:17:24.028Z,5.6
2022-11-12T06:18:24.401Z,5.7
2022-11-12T06:19:24.158Z,5.7
2022-11-12T06:20:24.207Z,5.7
2022-11-12T06:21:24.216Z,5.7
2022-11-12T06:22:29.440Z,5.7
2022-11-12T06:23:24.388Z,5.6
2022-11-12T06:24:24.407Z,5.6
2022-11-12T06:25:24.427Z,5.6
2022-11-12T06:26:24.506Z,5.6
2022-11-12T06:27:24.578Z,5.6
2022-11-12T06:28:24.909Z,5.6
2022-11-12T06:29:24.694Z,5.6
2022-11-12T06:30:25.894Z,5.6
2022-11-12T06:31:24.769Z,5.6
2022-11-12T06:32:24.878Z,5.5
2022-11-12T06:33:24.924Z,5.4
2022-11-12T06:34:24.994Z,5.4
2022-11-12T06:35:25.060Z,5.4
2022-11-12T06:36:25.164Z,5.4
2022-11-12T06:37:25.270Z,5.4
2022-11-12T06:38:25.768Z,5.3
2022-11-12T06:39:25.355Z,5.2
2022-11-12T06:40:25.346Z,5.3
2022-11-12T06:41:25.401Z,5.3
2022-11-12T06:42:25.454Z,5.3
2022-11-12T06:43:25.610Z,5.3
2022-11-12T06:44:25.569Z,5.4
2022-11-12T06:45:25.695Z,5.5
2022-11-12T06:46:25.682Z,5.5
2022-11-12T06:47:25.734Z,5.6
2022-11-12T06:48:26.027Z,5.5
2022-11-12T06:49:25.864Z,5.6
2022-11-12T06:50:25.948Z,5.6
2022-11-12T06:51:25.970Z,5.8
2022-11-12T06:52:26.014Z,5.8
2022-11-12T06:53:26.157Z,5.8
2022-11-12T06:54:26.258Z,5.7
2022-11-12T06:55:26.164Z,5.6
2022-11-12T06:56:26.247Z,5.7
2022-11-12T06:57:26.340Z,5.8
2022-11-12T06:58:26.641Z,5.9
2022-11-12T06:59:26.422Z,5.8
2022-11-12T07:00:26.484Z,5.8
2022-11-12T07:01:27.637Z,5.8
2022-11-12T07:02:26.594Z,5.8
2022-11-12T07:03:26.659Z,5.8
2022-11-12T07:04:26.701Z,5.8
2022-11-12T07:05:26.819Z,5.8
2022-11-12T07:06:26.824Z,5.8
2022-11-12T07:07:26.928Z,5.8
2022-11-12T07:08:27.197Z,5.8
2022-11-12T07:09:26.967Z,5.9
2022-11-12T07:10:27.186Z,5.9
2022-11-12T07:11:27.086Z,5.8
2022-11-12T07:12:27.133Z,5.8
2022-11-12T07:13:27.212Z,5.9
2022-11-12T07:14:27.248Z,5.9
2022-11-12T07:15:27.292Z,5.9
2022-11-12T07:16:27.826Z,5.9
2022-11-12T07:17:28.570Z,6
2022-11-12T07:18:32.495Z,6
2022-11-12T07:19:27.573Z,5.9
2022-11-12T07:20:27.547Z,6
2022-11-12T07:21:27.602Z,5.9
2022-11-12T07:22:27.642Z,5.9
2022-11-12T07:23:27.805Z,5.9
2022-11-12T07:24:27.743Z,5.9
2022-11-12T07:25:27.814Z,6
2022-11-12T07:26:28.010Z,6
2022-11-12T07:27:27.954Z,5.9
2022-11-12T07:28:28.244Z,5.9
2022-11-12T07:29:43.052Z,5.9
2022-11-12T07:30:28.153Z,6
2022-11-12T07:31:28.154Z,6.1
2022-11-12T07:32:28.231Z,6.1
2022-11-12T07:33:28.284Z,6.1
2022-11-12T07:34:28.336Z,6.1
2022-11-12T07:35:28.660Z,6.1
2022-11-12T07:36:28.454Z,6
2022-11-12T07:37:28.508Z,6.1
2022-11-12T07:38:28.999Z,6
2022-11-12T07:39:28.615Z,6.1
2022-11-12T07:40:28.667Z,6.2
2022-11-12T07:41:28.724Z,6.2
2022-11-12T07:42:28.925Z,6.3
2022-11-12T07:43:28.844Z,6.3
2022-11-12T07:44:28.914Z,6.4
2022-11-12T07:45:28.939Z,6.3
2022-11-12T07:46:29.000Z,6.3
2022-11-12T07:47:29.061Z,6.3
2022-11-12T07:48:29.356Z,6.3
2022-11-12T07:49:29.199Z,6.3
2022-11-12T07:50:29.234Z,6.4
2022-11-12T07:51:29.265Z,6.5
2022-11-12T07:52:29.317Z,6.6
2022-11-12T07:53:29.408Z,6.7
2022-11-12T07:54:29.432Z,6.6
2022-11-12T07:55:29.486Z,6.7
2022-11-12T07:56:29.555Z,6.8
2022-11-12T07:57:29.619Z,7
2022-11-12T07:58:29.962Z,7
2022-11-12T07:59:34.728Z,7
2022-11-12T08:00:29.791Z,7
2022-11-12T08:01:30.009Z,7.1
2022-11-12T08:02:29.929Z,7.3
2022-11-12T08:03:29.992Z,7.3
2022-11-12T08:04:30.024Z,7.3
2022-11-12T08:05:30.103Z,7.5
2022-11-12T08:06:30.199Z,7.5
2022-11-12T08:07:30.827Z,7.4
2022-11-12T08:08:30.402Z,7.3
2022-11-12T08:09:30.481Z,7.2
2022-11-12T08:10:30.503Z,7.4
2022-11-12T08:11:30.648Z,7.4
2022-11-12T08:12:30.684Z,7.5
2022-11-12T08:13:30.812Z,7.5
2022-11-12T08:14:30.932Z,7.6
2022-11-12T08:15:30.841Z,7.6
2022-11-12T08:16:30.933Z,7.6
2022-11-12T08:17:30.963Z,7.6
2022-11-12T08:18:31.048Z,7.6
2022-11-12T08:19:31.116Z,7.6
2022-11-12T08:20:31.142Z,7.7
2022-11-12T08:21:31.215Z,7.7
2022-11-12T08:22:31.292Z,7.8
2022-11-12T08:23:31.364Z,8
2022-11-12T08:24:31.372Z,7.9
2022-11-12T08:25:31.435Z,8.1
2022-11-12T08:26:31.497Z,7.9
2022-11-12T08:27:31.540Z,8
2022-11-12T08:28:31.617Z,7.9
2022-11-12T08:29:31.699Z,7.9
2022-11-12T08:30:31.843Z,8
2022-11-12T08:31:31.801Z,8
2022-11-12T08:32:31.889Z,8.1
2022-11-12T08:33:31.941Z,8.2
2022-11-12T08:34:32.003Z,8.2
2022-11-12T08:35:32.047Z,8.2
2022-11-12T08:36:32.115Z,8.1
2022-11-12T08:37:39.060Z,8.1
2022-11-12T08:38:32.249Z,8.3
2022-11-12T08:39:49.594Z,8.2
2022-11-12T08:41:09.418Z,8.3
2022-11-12T08:42:16.332Z,8.3
2022-11-12T08:42:32.527Z,8.5
2022-11-12T08:43:39.638Z,8.4
2022-11-12T08:44:53.135Z,8.5
2022-11-12T08:45:32.613Z,8.8
2022-11-12T08:46:32.981Z,8.7
2022-11-12T08:47:32.779Z,8.6
2022-11-12T08:48:32.815Z,8.4
2022-11-12T08:49:37.872Z,8.4
2022-11-12T08:51:06.130Z,8.5
2022-11-12T08:51:33.048Z,8.6
2022-11-12T08:52:33.082Z,8.7
2022-11-12T08:53:33.133Z,8.7
2022-11-12T08:54:33.399Z,8.7
2022-11-12T08:55:38.243Z,8.8
2022-11-12T08:56:33.241Z,8.9
2022-11-12T08:57:33.327Z,8.9
2022-11-12T08:58:33.399Z,9
2022-11-12T08:59:33.425Z,9.1
2022-11-12T09:00:33.497Z,8.8
2022-11-12T09:01:33.560Z,9
2022-11-12T09:02:38.721Z,9.1
2022-11-12T09:03:33.655Z,9.1
2022-11-12T09:04:33.708Z,9.2
2022-11-12T09:05:33.768Z,9.1
2022-11-12T09:06:33.815Z,9.2
2022-11-12T09:07:49.157Z,9.3
2022-11-12T09:08:33.926Z,9.4
2022-11-12T09:09:33.945Z,9.5
2022-11-12T09:10:39.031Z,9.6
2022-11-12T09:11:34.098Z,9.6
2022-11-12T09:12:34.142Z,9.6
2022-11-12T09:13:34.207Z,9.5
2022-11-12T09:14:34.277Z,9.6
2022-11-12T09:15:38.493Z,9.6
2022-11-12T09:16:34.344Z,10
2022-11-12T09:17:34.391Z,10.2
2022-11-12T09:18:34.572Z,10.3
2022-11-12T09:19:37.517Z,10.6
2022-11-12T09:20:34.584Z,10.6
2022-11-12T09:21:34.606Z,10.8
2022-11-12T09:22:34.630Z,10.8
2022-11-12T09:23:34.753Z,10.8
2022-11-12T09:24:34.759Z,11
2022-11-12T09:25:34.846Z,11.2
2022-11-12T09:26:34.900Z,11
2022-11-12T09:27:34.985Z,11.3
2022-11-12T09:28:35.009Z,11.4
2022-11-12T09:29:35.056Z,11.7
2022-11-12T09:30:35.126Z,12.1
2022-11-12T09:31:35.203Z,12.2
2022-11-12T09:32:35.220Z,12.3
2022-11-12T09:33:35.241Z,12.2
2022-11-12T09:34:35.406Z,12.3
2022-11-12T09:35:35.347Z,12.2
2022-11-12T09:36:39.596Z,12.2
2022-11-12T09:37:35.458Z,12.6
2022-11-12T09:38:35.517Z,12.8
2022-11-12T09:39:35.594Z,13.1
2022-11-12T09:40:35.629Z,13.2
2022-11-12T09:41:35.704Z,13.7
2022-11-12T09:42:35.784Z,13.6
2022-11-12T09:43:35.836Z,13.1
2022-11-12T09:44:36.986Z,13
2022-11-12T09:45:36.000Z,13.2
2022-11-12T09:46:36.027Z,13.2
2022-11-12T09:47:36.109Z,12.9
2022-11-12T09:48:36.197Z,12.7
2022-11-12T09:49:36.205Z,12.6
2022-11-12T09:50:36.362Z,12.4
2022-11-12T09:51:36.522Z,12.3
2022-11-12T09:52:36.336Z,12.3
2022-11-12T09:53:40.227Z,12.2
2022-11-12T09:54:36.475Z,12.4
2022-11-12T09:55:36.544Z,12.2
2022-11-12T09:56:36.640Z,12.3
2022-11-12T09:57:36.649Z,12.7
2022-11-12T09:58:36.724Z,12.6
2022-11-12T09:59:36.785Z,12.4
2022-11-12T10:00:39.088Z,12.3
2022-11-12T10:01:36.930Z,12.5
2022-11-12T10:02:36.985Z,12.7
2022-11-12T10:03:37.012Z,12.9
2022-11-12T10:04:37.025Z,12.9
2022-11-12T10:05:37.110Z,13
2022-11-12T10:06:37.324Z,13
2022-11-12T10:07:37.761Z,12.7
2022-11-12T10:08:38.031Z,13
2022-11-12T10:09:37.501Z,12.8
2022-11-12T10:10:39.845Z,12.7
2022-11-12T10:11:37.513Z,12.9
2022-11-12T10:12:37.689Z,12.9
2022-11-12T10:13:41.996Z,12.8
2022-11-12T10:14:43.067Z,12.9
2022-11-12T10:15:39.460Z,13.2
2022-11-12T10:16:38.015Z,13
2022-11-12T10:17:37.844Z,13.1
2022-11-12T10:18:37.860Z,12.9
2022-11-12T10:19:37.911Z,12.9
2022-11-12T10:20:38.891Z,13
2022-11-12T10:21:38.030Z,13.2
2022-11-12T10:22:38.215Z,13.3
2022-11-12T10:23:38.133Z,13.2
2022-11-12T10:24:38.273Z,13.1
2022-11-12T10:25:38.258Z,13.1
2022-11-12T10:26:38.362Z,13.1
2022-11-12T10:28:06.512Z,13.2
2022-11-12T10:28:39.202Z,13.3
2022-11-12T10:29:40.173Z,13.3
2022-11-12T10:30:40.818Z,13.3
2022-11-12T10:31:38.589Z,13.1
2022-11-12T10:32:47.985Z,13.2
2022-11-12T10:33:40.645Z,13.2
2022-11-12T10:34:39.742Z,13.1
2022-11-12T10:35:39.019Z,13.1
2022-11-12T10:36:40.091Z,12.9
2022-11-12T10:37:48.545Z,13
2022-11-12T10:38:40.901Z,12.9
2022-11-12T10:39:39.046Z,13.2
2022-11-12T10:40:39.131Z,13.3
2022-11-12T10:41:39.160Z,13.4
2022-11-12T10:42:53.914Z,13.1
2022-11-12T10:43:39.286Z,13.3
2022-11-12T10:44:39.304Z,13.4
2022-11-12T10:45:39.345Z,13.3
2022-11-12T10:46:39.425Z,13.2
2022-11-12T10:47:39.842Z,13.2
2022-11-12T10:48:39.854Z,13.4
2022-11-12T10:49:44.641Z,13.3
2022-11-12T10:50:49.183Z,13.2
2022-11-12T10:51:40.857Z,13.5
2022-11-12T10:52:39.772Z,13.7
2022-11-12T10:53:39.966Z,13.7
2022-11-12T10:54:40.295Z,13.6
2022-11-12T10:55:41.186Z,13.6
2022-11-12T10:56:40.763Z,13.4
2022-11-12T10:57:41.193Z,13.5
2022-11-12T10:58:40.148Z,13.6
2022-11-12T10:59:42.165Z,13.4
2022-11-12T11:00:41.747Z,13.5
2022-11-12T11:01:45.635Z,13.4
2022-11-12T11:02:40.621Z,13.3
2022-11-12T11:03:42.082Z,13.5
2022-11-12T11:04:42.952Z,13.8
2022-11-12T11:05:44.085Z,13.8
2022-11-12T11:06:41.273Z,13.7
2022-11-12T11:07:40.893Z,13.7
2022-11-12T11:08:46.386Z,13.9
2022-11-12T11:09:41.065Z,13.7
2022-11-12T11:10:41.672Z,13.9
2022-11-12T11:11:41.579Z,13.9
2022-11-12T11:12:44.180Z,13.6
2022-11-12T11:13:44.277Z,13.7
2022-11-12T11:14:41.853Z,13.8
2022-11-12T11:15:46.835Z,13.8
2022-11-12T11:16:42.273Z,13.8
2022-11-12T11:17:41.636Z,13.7
2022-11-12T11:18:42.005Z,13.6
2022-11-12T11:19:41.936Z,13.4
2022-11-12T11:20:42.721Z,13.4
2022-11-12T11:21:42.933Z,13.5
2022-11-12T11:22:42.825Z,13.7
2022-11-12T11:23:49.825Z,14
2022-11-12T11:37:46.610Z,15
2022-11-12T11:38:42.465Z,14.9
2022-11-12T11:39:42.627Z,14.8
2022-11-12T11:40:42.601Z,15
2022-11-12T11:41:42.643Z,14.8
2022-11-12T11:42:42.752Z,14.7
2022-11-12T11:43:42.791Z,14.8
2022-11-12T11:44:46.548Z,14.9
2022-11-12T11:45:42.896Z,15.1
2022-11-12T11:46:42.951Z,14.9
2022-11-12T11:47:59.768Z,15.1
2022-11-12T11:48:43.195Z,15.2
2022-11-12T11:49:43.335Z,15.1
2022-11-12T11:50:43.205Z,15
2022-11-12T11:51:43.232Z,14.8
2022-11-12T11:52:43.281Z,14.9
2022-11-12T11:53:43.361Z,14.9
2022-11-12T11:54:46.873Z,14.9
2022-11-12T11:55:43.570Z,14.9
2022-11-12T11:56:43.957Z,14.8
2022-11-12T11:58:03.365Z,14.8
2022-11-12T11:58:43.624Z,14.9
2022-11-12T11:59:43.630Z,14.9
2022-11-12T12:00:43.671Z,14.9
2022-11-12T12:01:43.702Z,14.9
2022-11-12T12:02:43.978Z,14.8
2022-11-12T12:03:48.475Z,14.7
2022-11-12T12:04:43.962Z,14.7
2022-11-12T12:05:45.383Z,14.8
2022-11-12T12:06:44.073Z,14.9
2022-11-12T12:07:44.065Z,14.7
2022-11-12T12:08:44.107Z,14.8
2022-11-12T12:09:44.192Z,14.8
2022-11-12T12:11:06.666Z,14.8
2022-11-12T12:11:44.323Z,14.7
2022-11-12T12:12:44.392Z,14.6
2022-11-12T12:13:44.489Z,14.5
2022-11-12T12:14:44.534Z,14.4
2022-11-12T12:15:44.544Z,14.4
2022-11-12T12:16:44.582Z,14.6
2022-11-12T12:17:44.726Z,14.7
2022-11-12T12:18:44.834Z,14.7
2022-11-12T12:28:53.096Z,14.7
2022-11-12T12:29:46.450Z,14.7
2022-11-12T12:30:45.494Z,14.7
2022-11-12T12:31:45.506Z,14.6
2022-11-12T12:32:45.516Z,14.7
2022-11-12T12:33:45.566Z,14.8
2022-11-12T12:34:45.584Z,14.6
2022-11-12T12:35:45.640Z,14.5
2022-11-12T12:36:45.672Z,14.7
2022-11-12T12:37:45.741Z,14.8
2022-11-12T12:38:45.775Z,14.9
2022-11-12T12:39:48.033Z,14.8
2022-11-12T12:40:45.875Z,14.7
2022-11-12T12:41:46.006Z,14.7
2022-11-12T12:42:45.991Z,14.7
2022-11-12T12:43:46.149Z,14.7
2022-11-12T12:44:46.226Z,14.7
2022-11-12T12:45:46.157Z,14.8
2022-11-12T12:46:46.200Z,14.8
2022-11-12T12:47:46.352Z,14.8
2022-11-12T12:48:51.326Z,14.9
2022-11-12T12:49:46.359Z,14.9
2022-11-12T12:50:46.402Z,14.8
2022-11-12T12:51:48.421Z,14.9
2022-11-12T12:52:46.563Z,15
2022-11-12T12:53:46.668Z,15
2022-11-12T12:54:46.655Z,14.9
2022-11-12T12:55:46.722Z,14.9
2022-11-12T12:56:46.746Z,14.8
2022-11-12T12:57:46.788Z,14.7
2022-11-12T12:58:46.832Z,14.8
2022-11-12T12:59:46.962Z,14.7
2022-11-12T13:00:47.104Z,14.8
2022-11-12T13:01:47.040Z,14.8
2022-11-12T13:02:47.091Z,14.9
2022-11-12T13:04:48.552Z,15
2022-11-12T13:04:51.448Z,14.9
2022-11-12T13:05:47.209Z,15
2022-11-12T13:06:47.347Z,15
2022-11-12T13:07:47.346Z,15
2022-11-12T13:08:47.492Z,14.9
2022-11-12T13:09:47.518Z,15.1
2022-11-12T13:10:47.585Z,15.3
2022-11-12T13:11:47.599Z,15.4
2022-11-12T13:12:47.650Z,15.4
2022-11-12T13:13:47.704Z,15.3
2022-11-12T13:14:47.828Z,15.2
2022-11-12T13:15:47.854Z,15.2
2022-11-12T13:16:47.990Z,15
2022-11-12T13:17:47.927Z,15
2022-11-12T13:18:47.962Z,15.1
2022-11-12T13:19:48.181Z,15
2022-11-12T13:20:48.066Z,15.1
2022-11-12T13:21:48.132Z,15.1
2022-11-12T13:22:48.147Z,15.1
2022-11-12T13:23:48.217Z,15.1
2022-11-12T13:24:48.264Z,15.2
2022-11-12T13:25:48.377Z,15.1
2022-11-12T13:26:48.396Z,15.1
2022-11-12T13:27:48.478Z,15.2
2022-11-12T13:28:50.060Z,15
2022-11-12T13:29:48.633Z,14.9
2022-11-12T13:30:48.668Z,15
2022-11-12T13:31:48.707Z,14.9
2022-11-12T13:32:48.873Z,14.9
2022-11-12T13:33:48.824Z,14.9
2022-11-12T13:34:49.738Z,14.8
2022-11-12T13:35:48.961Z,14.8
2022-11-12T13:36:52.497Z,14.9
2022-11-12T13:37:49.720Z,14.8
2022-11-12T13:38:49.349Z,14.7
2022-11-12T13:39:49.475Z,14.6
2022-11-12T13:40:49.226Z,14.5
2022-11-12T13:41:49.304Z,14.6
2022-11-12T13:42:51.754Z,14.7
2022-11-12T13:43:49.495Z,14.7
2022-11-12T13:44:53.494Z,14.7
2022-11-12T13:45:49.551Z,14.7
2022-11-12T13:46:51.667Z,14.7
2022-11-12T13:47:50.250Z,14.6
2022-11-12T13:48:49.830Z,14.6
2022-11-12T13:49:56.057Z,14.7
2022-11-12T13:50:49.822Z,14.6
2022-11-12T13:51:49.908Z,14.6
2022-11-12T13:52:50.152Z,14.6
2022-11-12T13:53:59.005Z,14.6
2022-11-12T13:54:50.642Z,14.7
2022-11-12T13:55:50.360Z,14.7
2022-11-12T13:56:50.147Z,14.7
2022-11-12T13:57:50.272Z,14.6
2022-11-12T13:58:50.327Z,14.7
2022-11-12T13:59:50.634Z,14.5
2022-11-12T14:00:50.604Z,14.5
2022-11-12T14:01:50.459Z,14.8
2022-11-12T14:02:54.370Z,14.7
2022-11-12T14:03:55.052Z,14.6
2022-11-12T14:04:55.276Z,14.7
2022-11-12T14:05:55.449Z,14.6
2022-11-12T14:07:15.602Z,14.5
2022-11-12T14:07:55.399Z,14.4